createdAt,value
2023-04-19T00:03:59.302Z,8.25
2023-04-19T00:08:01.116Z,7.22
2023-04-19T00:12:06.033Z,6.68
2023-04-19T00:16:08.010Z,11.38
2023-04-19T00:20:10.429Z,9.27
2023-04-19T00:24:12.128Z,8.93
2023-04-19T00:28:13.778Z,8.10
2023-04-19T00:32:16.172Z,10.93
2023-04-19T00:36:17.830Z,8.75
2023-04-19T00:40:19.718Z,11.10
2023-04-19T00:44:21.496Z,7.28
2023-04-19T00:48:24.070Z,10.50
2023-04-19T00:52:26.249Z,12.48
2023-04-19T00:56:28.574Z,11.03
2023-04-19T01:00:30.325Z,11.87
2023-04-19T01:04:32.327Z,8.13
2023-04-19T01:08:34.098Z,10.15
2023-04-19T01:12:35.962Z,9.43
2023-04-19T01:16:38.937Z,12.32
2023-04-19T01:24:42.517Z,13.10
2023-04-19T01:28:44.148Z,10.48
2023-04-19T01:32:45.824Z,10.63
2023-04-19T01:36:47.567Z,10.55
2023-04-19T01:40:49.324Z,8.65
2023-04-19T01:44:51.142Z,14.30
2023-04-19T01:48:53.097Z,8.90
2023-04-19T01:53:01.178Z,14.52
2023-04-19T01:57:03.067Z,8.30
2023-04-19T02:01:04.810Z,9.70
2023-04-19T02:05:07.085Z,11.45
2023-04-19T02:09:08.740Z,8.17
2023-04-19T02:13:10.399Z,10.43
2023-04-19T02:17:12.335Z,7.80
2023-04-19T02:21:14.076Z,10.68
2023-04-19T02:25:16.607Z,10.80
2023-04-19T02:29:19.045Z,12.30
2023-04-19T02:33:22.392Z,10.52
2023-04-19T02:37:24.098Z,8.60
2023-04-19T02:41:25.774Z,11.23
2023-04-19T02:45:27.416Z,13.02
2023-04-19T02:49:34.574Z,9.02
2023-04-19T02:53:36.277Z,14.30
2023-04-19T02:57:38.001Z,12.57
2023-04-19T03:01:39.800Z,12.48
2023-04-19T03:05:41.630Z,11.40
2023-04-19T03:09:43.301Z,11.80
2023-04-19T03:13:45.314Z,11.20
2023-04-19T03:17:47.017Z,12.23
2023-04-19T03:21:48.716Z,12.43
2023-04-19T03:25:51.066Z,12.57
2023-04-19T03:29:53.037Z,12.37
2023-04-19T03:33:57.850Z,14.30
2023-04-19T03:37:59.558Z,12.85
2023-04-19T03:42:01.509Z,12.48
2023-04-19T03:46:03.175Z,9.70
2023-04-19T03:50:05.248Z,12.18
2023-04-19T03:54:06.910Z,11.43
2023-04-19T03:58:08.614Z,9.65
2023-04-19T04:02:10.492Z,12.18
2023-04-19T04:06:12.303Z,12.07
2023-04-19T04:10:13.973Z,20.60
2023-04-19T04:14:18.358Z,11.50
2023-04-19T04:18:20.617Z,15.15
2023-04-19T04:22:22.335Z,15.60
2023-04-19T04:26:28.128Z,13.55
2023-04-19T04:30:30.145Z,13.57
2023-04-19T04:34:33.042Z,12.43
2023-04-19T04:38:34.754Z,16.52
2023-04-19T04:42:37.539Z,15.20
2023-04-19T04:46:39.346Z,16.23
2023-04-19T04:50:41.266Z,14.88
2023-04-19T04:54:43.075Z,14.02
2023-04-19T04:58:44.896Z,18.17
2023-04-19T05:02:46.627Z,17.08
2023-04-19T05:06:48.566Z,17.98
2023-04-19T05:10:50.438Z,18.60
2023-04-19T05:14:54.704Z,20.48
2023-04-19T05:18:56.588Z,15.20
2023-04-19T05:22:59.426Z,18.65
2023-04-19T05:27:01.829Z,17.77
2023-04-19T05:31:03.694Z,18.15
2023-04-19T05:35:06.286Z,17.75
2023-04-19T05:39:07.884Z,17.15
2023-04-19T05:43:09.628Z,22.20
2023-04-19T05:47:11.408Z,18.92
2023-04-19T05:51:15.559Z,22.83
2023-04-19T05:55:18.157Z,18.58
2023-04-19T05:59:19.822Z,18.38
2023-04-19T06:03:21.691Z,18.48
2023-04-19T06:07:32.042Z,22.17
2023-04-19T06:11:43.116Z,27.83
2023-04-19T06:15:51.622Z,17.38
2023-04-19T06:19:54.432Z,22.13
2023-04-19T06:23:56.058Z,18.73
2023-04-19T06:27:57.962Z,14.55
2023-04-19T06:32:00.024Z,18.10
2023-04-19T06:36:02.001Z,15.73
2023-04-19T06:40:08.367Z,18.30
2023-04-19T06:44:10.089Z,19.48
2023-04-19T06:48:11.797Z,20.88
2023-04-19T06:52:13.493Z,18.30
2023-04-19T06:56:15.152Z,15.02
2023-04-19T07:00:17.352Z,14.38
2023-04-19T07:04:19.449Z,21.60
2023-04-19T07:08:21.714Z,14.82
2023-04-19T07:12:23.402Z,22.13
2023-04-19T07:16:25.377Z,19.13
2023-04-19T07:20:29.272Z,20.65
2023-04-19T07:24:31.121Z,15.43
2023-04-19T07:28:33.063Z,18.13
2023-04-19T07:32:34.938Z,19.35
2023-04-19T07:36:37.886Z,17.98
2023-04-19T07:40:39.633Z,21.10
2023-04-19T07:44:41.304Z,15.23
2023-04-19T07:48:43.102Z,19.08
2023-04-19T07:52:45.079Z,19.23
2023-04-19T07:56:46.796Z,20.20
2023-04-19T08:00:48.584Z,17.83
2023-04-19T08:04:51.938Z,18.35
2023-04-19T08:08:53.719Z,19.00
2023-04-19T08:13:05.127Z,20.05
2023-04-19T08:17:24.081Z,24.13
2023-04-19T08:21:34.631Z,15.52
2023-04-19T08:25:42.770Z,20.63
2023-04-19T08:29:45.117Z,18.40
2023-04-19T08:33:47.703Z,23.52
2023-04-19T08:37:49.567Z,20.38
2023-04-19T08:42:02.609Z,21.27
2023-04-19T08:46:14.209Z,19.60
2023-04-19T08:50:32.645Z,19.15
2023-04-19T08:54:38.805Z,20.25
2023-04-19T08:59:00.447Z,20.08
2023-04-19T09:03:02.905Z,15.18
2023-04-19T09:07:04.799Z,22.37
2023-04-19T09:11:06.866Z,16.92
2023-04-19T09:15:10.173Z,17.57
2023-04-19T09:19:23.080Z,23.15
2023-04-19T09:23:30.892Z,20.35
2023-04-19T09:27:34.514Z,22.77
2023-04-19T09:31:50.477Z,19.92
2023-04-19T09:35:53.199Z,21.40
2023-04-19T09:39:55.454Z,24.33
2023-04-19T09:44:44.576Z,19.77
2023-04-19T09:48:32.442Z,22.23
2023-04-19T09:52:35.023Z,16.25
2023-04-19T09:56:37.819Z,22.65
2023-04-19T10:00:48.225Z,23.58
2023-04-19T10:05:15.810Z,18.55
2023-04-19T10:09:22.442Z,16.15
2023-04-19T10:13:26.845Z,16.88
2023-04-19T10:17:28.944Z,15.02
2023-04-19T10:21:31.905Z,17.10
2023-04-19T10:29:57.321Z,25.42
2023-04-19T10:33:59.350Z,12.98
2023-04-19T10:38:16.493Z,13.83
2023-04-19T10:42:18.944Z,22.00
2023-04-19T10:46:29.382Z,16.25
2023-04-19T10:50:51.233Z,15.13
2023-04-19T10:54:57.042Z,13.23
2023-04-19T10:59:02.338Z,19.30
2023-04-19T11:04:02.855Z,10.57
2023-04-19T11:08:05.279Z,10.30
2023-04-19T11:12:12.254Z,16.83
2023-04-19T11:16:14.477Z,12.80
2023-04-19T11:20:16.293Z,6.70
2023-04-19T11:24:21.212Z,11.02
2023-04-19T11:28:23.255Z,10.23
2023-04-19T11:32:24.978Z,10.53
2023-04-19T11:36:26.916Z,9.65
2023-04-19T11:40:32.303Z,9.50
2023-04-19T11:44:34.758Z,8.50
2023-04-19T11:48:37.491Z,13.80
2023-04-19T11:52:39.332Z,14.65
2023-04-19T11:56:57.943Z,8.88
2023-04-19T12:01:10.734Z,8.20
2023-04-19T12:05:15.322Z,9.93
2023-04-19T12:09:24.066Z,8.05
2023-04-19T12:13:26.583Z,6.68
2023-04-19T12:17:34.470Z,4.32
2023-04-19T12:21:36.372Z,8.32
2023-04-19T12:25:41.188Z,6.60
2023-04-19T12:29:49.152Z,8.68
2023-04-19T12:33:51.490Z,7.95
2023-04-19T12:37:55.052Z,10.05
2023-04-19T12:41:58.290Z,7.38
2023-04-19T12:46:00.451Z,11.00
2023-04-19T12:50:04.905Z,11.18
2023-04-19T12:54:07.703Z,5.82
2023-04-19T13:02:11.184Z,6.38
2023-04-19T13:06:15.393Z,5.85
2023-04-19T13:10:17.195Z,5.13
2023-04-19T13:14:19.025Z,10.85
2023-04-19T13:18:22.218Z,9.70
2023-04-19T13:22:23.911Z,6.85
2023-04-19T13:26:26.956Z,6.57
2023-04-19T13:30:28.962Z,6.22
2023-04-19T13:34:30.810Z,7.97
2023-04-19T13:38:32.453Z,7.10
2023-04-19T13:42:34.119Z,5.50
2023-04-19T13:46:35.777Z,9.38
2023-04-19T13:50:37.571Z,3.58
2023-04-19T13:54:39.355Z,5.68
2023-04-19T13:58:41.077Z,7.38
2023-04-19T14:02:46.113Z,7.45
2023-04-19T14:06:48.631Z,2.15
2023-04-19T14:10:51.109Z,3.08
2023-04-19T14:14:52.760Z,9.82
2023-04-19T14:18:54.452Z,6.90
2023-04-19T14:22:58.827Z,8.15
2023-04-19T14:27:10.525Z,4.13
2023-04-19T14:31:15.643Z,8.55
2023-04-19T14:35:17.564Z,6.18
2023-04-19T14:39:59.478Z,4.53
2023-04-19T14:44:01.307Z,8.68
2023-04-19T14:48:03.383Z,4.38
2023-04-19T14:52:05.232Z,2.63
2023-04-19T14:56:07.418Z,5.07
2023-04-19T15:00:09.763Z,4.80
2023-04-19T15:04:11.609Z,6.80
2023-04-19T15:08:29.047Z,7.72
2023-04-19T15:12:32.150Z,5.25
2023-04-19T15:16:34.293Z,4.10
2023-04-19T15:20:36.276Z,4.28
2023-04-19T15:24:37.971Z,8.63
2023-04-19T15:28:39.895Z,5.65
2023-04-19T15:32:43.224Z,3.95
2023-04-19T15:36:47.304Z,6.35
2023-04-19T15:40:48.988Z,5.85
2023-04-19T15:44:50.608Z,6.50
2023-04-19T15:48:52.988Z,7.63
2023-04-19T15:52:54.802Z,5.50
2023-04-19T15:56:57.215Z,3.67
2023-04-19T16:00:58.916Z,8.15
2023-04-19T16:05:00.590Z,6.10
2023-04-19T16:09:02.230Z,5.78
2023-04-19T16:13:05.547Z,6.97
2023-04-19T16:17:07.499Z,8.60
2023-04-19T16:21:10.496Z,5.13
2023-04-19T16:25:12.874Z,4.93
2023-04-19T16:29:14.655Z,8.48
2023-04-19T16:33:16.636Z,4.07
2023-04-19T16:37:18.476Z,7.65
2023-04-19T16:41:20.181Z,5.30
2023-04-19T16:45:22.023Z,6.28
2023-04-19T16:49:25.317Z,3.55
2023-04-19T16:53:26.966Z,11.23
2023-04-19T16:57:28.605Z,4.78
2023-04-19T17:01:30.318Z,8.77
2023-04-19T17:05:32.008Z,12.10
2023-04-19T17:09:33.722Z,11.20
2023-04-19T17:13:35.413Z,7.55
2023-04-19T17:17:37.157Z,5.13
2023-04-19T17:21:38.812Z,5.20
2023-04-19T17:25:40.891Z,5.03
2023-04-19T17:29:42.527Z,11.97
2023-04-19T17:33:44.265Z,4.30
2023-04-19T17:37:46.090Z,4.97
2023-04-19T17:41:47.697Z,8.52
2023-04-19T17:45:49.351Z,7.43
2023-04-19T17:49:51.028Z,10.68
2023-04-19T17:53:52.694Z,7.13
2023-04-19T17:57:54.445Z,7.88
2023-04-19T18:01:59.153Z,9.07
2023-04-19T18:06:00.962Z,11.10
2023-04-19T18:10:04.132Z,4.80
2023-04-19T18:14:09.091Z,4.45
2023-04-19T18:18:11.156Z,4.82
2023-04-19T18:22:12.973Z,3.97
2023-04-19T18:26:14.670Z,6.78
2023-04-19T18:30:16.565Z,6.95
2023-04-19T18:34:19.910Z,17.55
2023-04-19T18:38:21.914Z,7.53
2023-04-19T18:42:25.659Z,9.85
2023-04-19T18:46:27.520Z,15.85
2023-04-19T18:50:34.078Z,7.38
2023-04-19T18:54:37.393Z,8.93
2023-04-19T18:58:39.178Z,7.57
2023-04-19T19:02:43.836Z,9.82
2023-04-19T19:06:49.153Z,9.70
2023-04-19T19:14:55.706Z,9.88
2023-04-19T19:18:57.487Z,11.63
2023-04-19T19:22:59.340Z,11.57
2023-04-19T19:27:04.090Z,6.50
2023-04-19T19:31:06.653Z,7.85
2023-04-19T19:35:09.512Z,16.38
2023-04-19T19:39:11.583Z,6.93
2023-04-19T19:43:13.646Z,10.75
2023-04-19T19:47:18.191Z,9.68
2023-04-19T19:51:52.209Z,8.10
2023-04-19T19:55:45.383Z,18.08
2023-04-19T19:59:52.646Z,20.58
2023-04-19T20:03:58.248Z,49.47
2023-04-19T20:08:08.740Z,21.65
2023-04-19T20:12:13.467Z,11.48
2023-04-19T20:16:18.296Z,10.13
2023-04-19T20:20:20.978Z,19.70
2023-04-19T20:24:22.821Z,15.10
2023-04-19T20:28:24.643Z,13.32
2023-04-19T20:32:26.585Z,16.70
2023-04-19T20:36:28.435Z,13.63
2023-04-19T20:40:31.876Z,5.68
2023-04-19T20:44:34.396Z,9.00
2023-04-19T20:48:39.177Z,10.35
2023-04-19T20:52:41.087Z,12.68
2023-04-19T20:56:42.836Z,5.00
2023-04-19T21:00:44.627Z,4.43
2023-04-19T21:04:46.338Z,14.63
2023-04-19T21:08:47.946Z,10.13
2023-04-19T21:12:49.804Z,11.18
2023-04-19T21:16:51.443Z,9.52
2023-04-19T21:20:53.034Z,4.90
2023-04-19T21:24:54.613Z,6.18
2023-04-19T21:28:56.303Z,6.65
2023-04-19T21:32:58.012Z,6.47
2023-04-19T21:36:59.759Z,5.35
2023-04-19T21:41:01.400Z,4.95
2023-04-19T21:45:03.451Z,6.05
2023-04-19T21:49:05.166Z,9.55
2023-04-19T21:53:06.811Z,8.52
2023-04-19T21:57:08.786Z,12.63
2023-04-19T22:01:11.063Z,6.97
2023-04-19T22:05:13.488Z,5.50
2023-04-19T22:09:15.488Z,14.95
2023-04-19T22:13:17.614Z,4.32
2023-04-19T22:17:19.880Z,4.28
2023-04-19T22:21:21.699Z,6.33
2023-04-19T22:25:23.407Z,10.20
2023-04-19T22:29:25.139Z,4.65
2023-04-19T22:33:26.812Z,7.22
2023-04-19T22:37:28.530Z,6.70
2023-04-19T22:41:31.008Z,8.95
2023-04-19T22:45:32.674Z,9.47
2023-04-19T22:49:35.085Z,12.90
2023-04-19T22:53:37.617Z,7.53
2023-04-19T22:57:39.344Z,8.73
2023-04-19T23:01:41.114Z,6.10
2023-04-19T23:05:42.809Z,5.28
2023-04-19T23:09:44.447Z,8.65
2023-04-19T23:13:47.364Z,5.10
2023-04-19T23:17:49.354Z,5.97
2023-04-19T23:21:50.996Z,11.98
2023-04-19T23:25:52.619Z,7.05
2023-04-19T23:29:54.309Z,7.53
2023-04-19T23:33:56.452Z,6.63
2023-04-19T23:37:58.440Z,6.25
2023-04-19T23:42:03.195Z,9.52
2023-04-19T23:46:05.932Z,5.53
2023-04-19T23:50:08.096Z,9.32
2023-04-19T23:54:09.712Z,10.85
2023-04-19T23:58:11.337Z,5.45
